52.5°F
Current conditions from King Hill
Updated every 5 minutes
 
  Monday May 22, 2017

Observations for Westford

Westford

44° 37' 39"N, 73° 02' 29"W, Elevation 850 ft.
Eastern Time

Hourly observations for the last 72 hours

Date Time Temperature (°F) Humi-
dity

(%)
Wind
(mph)
Pressure Rain (in)
Air Dew 6 Hour 1 Hr 3 Hr 6 Hr Day
Alt
(in)
Sea
Level

(mb)
Max Min
22 21:00 52.5 51.1 95 SSW 5 G 12 29.88 1012.0 0.75
22 20:00 51.9 50.2 52.6 49.0 94 SSW 5 G 13 29.87 1011.6 0.21 0.75
22 19:00 51.9 50.2 94 S 5 G 14 29.87 1011.6 0.75
22 18:00 52.4 50.7 94 SSW 4 G 13 29.88 1011.8 0.75
22 17:00 52.0 50.6 95 SSW 4 G 11 29.89 1012.2 0.01 0.21 0.75
22 16:00 50.3 49.2 96 SSW 2 G 11 29.90 1012.4 0.14 0.74
22 15:00 49.5 47.8 94 SSW 3 G 11 29.92 1013.4 0.06 0.60
22 14:00 50.3 48.4 52.1 46.3 93 SSW 0 G 7 29.92 1013.3 0.02 0.04 0.05 0.54
22 13:00 49.7 47.5 92 SSW 4 G 10 29.96 1014.5 0.01 0.52
22 12:00 51.6 47.9 87 SSW 5 G 16 29.97 1014.8 0.01 0.51
22 11:00 51.0 47.0 86 S 4 G 14 29.97 1015.0 0.01 0.50
22 10:00 48.4 45.9 91 SSW 5 G 13 30.00 1016.0 0.50
22 09:00 46.8 44.9 93 S 5 G 15 30.02 1016.8 0.01 0.50
22 08:00 46.3 44.4 51.3 45.7 93 S 6 G 16 30.02 1016.7 0.01 0.09 0.29 0.49
22 07:00 45.8 44.2 94 SW 4 G 13 30.03 1017.1 0.48
22 06:00 45.9 44.3 94 SSW 6 G 14 30.03 1017.1 0.08 0.48
22 05:00 46.5 44.6 93 S 4 G 20 30.04 1017.2 0.04 0.20 0.40
22 04:00 48.6 46.7 93 SW 5 G 21 30.06 1017.9 0.08 0.36
22 03:00 51.2 49.8 95 S 0 G 1 30.05 1017.8 0.08 0.28
22 02:00 50.8 49.1 58.7 50.7 94 Calm 30.06 1018.1 0.11 0.23 0.23 0.20
22 01:00 50.8 48.6 92 S 0 G 2 30.08 1018.5 0.09 0.09
22 00:00 51.6 47.9 87 SSW 0 G 5 30.10 1019.3 0.03 0.03
21 23:00 53.9 47.5 79 Calm 30.11 1019.6 0.00
21 22:00 57.1 45.9 66 Calm 30.13 1020.2 0.00
21 21:00 57.2 46.4 67 Calm 30.13 1020.5 0.00
21 20:00 58.7 44.4 68.4 58.1 59 Calm 30.14 1020.8 0.00
21 19:00 58.7 46.1 63 Calm 30.16 1021.3 0.00
21 18:00 60.9 45.1 56 Calm 30.17 1021.6 0.00
21 17:00 63.5 43.5 48 W 0 G 7 30.18 1022.0 0.00
21 16:00 65.0 44.3 47 WNW 2 G 10 30.19 1022.5 0.00
21 15:00 67.7 38.3 34 NE 0 G 1 30.21 1023.0 0.00
21 14:00 67.0 39.2 68.4 51.2 36 W 0 G 5 30.24 1024.0 0.00
21 13:00 65.8 40.8 40 NNE 0 G 8 30.27 1025.0 0.00
21 12:00 63.8 37.7 38 WSW 3 G 9 30.30 1025.9 0.00
21 11:00 62.7 39.3 42 SW 2 G 9 30.32 1026.9 0.00
21 10:00 57.7 40.7 53 S 1 G 6 30.33 1027.3 0.00
21 09:00 54.3 40.7 60 NE 0 G 1 30.34 1027.5 0.00
21 08:00 51.3 38.7 51.3 37.4 62 Calm 30.35 1027.9 0.00
21 07:00 41.0 36.2 83 Calm 30.35 1027.9 0.00
21 06:00 38.3 34.5 86 Calm 30.36 1028.0 0.00
21 05:00 37.4 33.6 86 Calm 30.34 1027.4 0.00
21 04:00 39.8 34.5 81 Calm 30.33 1027.0 0.00
21 03:00 39.0 34.6 84 Calm 30.33 1027.2 0.00
21 02:00 39.1 33.5 54.8 36.5 80 Calm 30.33 1027.0 0.00
21 01:00 38.0 33.6 84 Calm 30.33 1027.1 0.00
21 00:00 38.2 33.2 82 Calm 30.33 1027.0 0.00
20 23:00 39.4 33.7 80 Calm 30.33 1027.0 0.00
20 22:00 40.9 34.6 78 Calm 30.33 1027.3 0.00
20 21:00 44.2 35.0 70 Calm 30.33 1027.1 0.00
20 20:00 54.8 36.5 63.0 54.8 50 Calm 30.33 1027.1 0.00
20 19:00 60.0 34.3 38 N 0 G 8 30.33 1027.0 0.00
20 18:00 61.8 31.6 32 WNW 2 G 9 30.32 1026.7 0.00
20 17:00 62.5 34.5 35 N 1 G 8 30.31 1026.5 0.00
20 16:00 61.7 33.8 35 NW 1 G 9 30.32 1026.7 0.00
20 15:00 61.0 37.8 42 NW 0 G 2 30.33 1027.2 0.00
20 14:00 59.0 34.7 59.6 45.2 40 WNW 1 G 7 30.33 1027.3 0.00
20 13:00 58.4 34.8 41 NNE 1 G 15 30.33 1027.2 0.00
20 12:00 55.1 34.7 46 NW 1 G 8 30.34 1027.5 0.00
20 11:00 52.8 36.1 53 N 1 G 9 30.34 1027.3 0.00
20 10:00 51.9 34.8 52 NW 0 G 5 30.33 1027.3 0.00
20 09:00 47.7 31.9 54 NE 2 G 9 30.34 1027.4 0.00
20 08:00 45.2 34.1 45.2 35.9 65 NNE 1 G 9 30.32 1026.9 0.00
20 07:00 38.8 33.2 80 Calm 30.31 1026.3 0.00
20 06:00 36.1 31.7 84 NE 0 G 7 30.28 1025.4 0.00
20 05:00 37.5 31.9 80 NNE 0 G 6 30.25 1024.3 0.00
20 04:00 38.6 33.0 80 N 0 G 4 30.22 1023.4 0.00
20 03:00 40.7 33.7 76 Calm 30.20 1022.8 0.00
20 02:00 42.6 34.2 54.4 42.6 72 N 0 G 9 30.18 1022.1 0.00
20 01:00 45.1 34.0 65 NNE 2 G 8 30.17 1021.9 0.00
20 00:00 44.2 35.0 70 Calm 30.15 1020.9 0.00
19 23:00 45.5 36.7 71 Calm 30.09 1019.2 0.00
19 22:00 46.7 38.9 74 ENE 0 G 4 30.08 1018.6 0.00

Data generated by WxSolution Version 1.9.0.6, Build 2017.01.14.


 
 
Current Radar Loop:

Copyright © WestfordWeather.net 2007-2017. All rights reserved.